Time;durP1;ratioP1;P1;durP2;ratioP2;P2;SDS_P1;SDS_P2;PMS_P1;PMS_P2;Temp;Humidity;BMP_temperature;BMP_pressure;BME280_temperature;BME280_humidity;BME280_pressure;Samples;Min_cycle;Max_cycle;Signal;HPM_P1;HPM_P2
2023/07/20 00:01:52;;;;;;;0.40;0.40;;;;;;;15.16;92.37;100573.34;5039133;28;20052;-87
2023/07/20 00:04:18;;;;;;;1.20;0.55;;;;;;;15.19;92.48;100574.13;5025386;28;20049;-90
2023/07/20 00:06:45;;;;;;;0.40;0.40;;;;;;;15.22;92.76;100578.47;5027514;28;20048;-89
2023/07/20 00:09:12;;;;;;;0.75;0.70;;;;;;;15.20;93.11;100578.50;5043508;28;20037;-89
2023/07/20 00:11:40;;;;;;;0.70;0.70;;;;;;;15.19;93.24;100575.94;5023825;28;20102;-90
2023/07/20 00:14:07;;;;;;;0.60;0.60;;;;;;;15.10;94.16;100565.66;5042626;28;20060;-89
2023/07/20 00:16:34;;;;;;;0.50;0.50;;;;;;;15.02;94.63;100568.50;5041197;28;20380;-89
2023/07/20 00:19:01;;;;;;;1.38;0.60;;;;;;;14.95;95.33;100566.94;5035991;28;20041;-89
2023/07/20 00:21:27;;;;;;;1.58;0.40;;;;;;;14.88;95.50;100561.84;5021750;28;20080;-90
2023/07/20 00:23:54;;;;;;;0.32;0.32;;;;;;;14.85;95.96;100558.44;5027010;28;20044;-90
2023/07/20 00:26:20;;;;;;;0.40;0.40;;;;;;;14.79;96.15;100558.63;5024731;28;20045;-88
2023/07/20 00:28:47;;;;;;;0.50;0.50;;;;;;;14.72;96.41;100556.13;5020297;28;20106;-89
2023/07/20 00:31:13;;;;;;;0.38;0.38;;;;;;;14.66;96.74;100551.03;5056398;28;20091;-89
2023/07/20 00:33:40;;;;;;;1.48;0.80;;;;;;;14.63;97.67;100547.63;5041779;28;20551;-90
2023/07/20 00:36:07;;;;;;;1.65;0.40;;;;;;;14.58;97.55;100552.13;5041447;28;20041;-89
2023/07/20 00:38:34;;;;;;;1.25;0.45;;;;;;;14.53;98.13;100555.72;5023249;28;20037;-88
2023/07/20 00:41:00;;;;;;;0.70;0.70;;;;;;;14.47;99.48;100561.19;5027762;28;20091;-90
2023/07/20 00:43:27;;;;;;;0.68;0.68;;;;;;;14.46;99.66;100555.97;5027800;28;20037;-90
2023/07/20 00:45:53;;;;;;;0.30;0.30;;;;;;;14.43;99.20;100558.66;5029627;28;20045;-90
2023/07/20 00:48:20;;;;;;;2.30;0.70;;;;;;;14.35;99.63;100554.47;5037168;28;20045;-88
2023/07/20 00:50:48;;;;;;;1.15;1.00;;;;;;;14.33;100.00;100552.78;5028413;28;20045;-89
2023/07/20 00:53:15;;;;;;;0.70;0.63;;;;;;;14.32;99.68;100554.53;5028039;28;20067;-89
2023/07/20 00:55:41;;;;;;;0.88;0.75;;;;;;;14.29;100.00;100549.38;5024814;28;20049;-88
2023/07/20 00:58:09;;;;;;;4.20;1.05;;;;;;;14.26;100.00;100545.94;5027500;28;20052;-88
2023/07/20 01:00:36;;;;;;;0.40;0.40;;;;;;;14.22;100.00;100540.78;5054165;28;20076;-85
2023/07/20 01:03:03;;;;;;;3.97;1.08;;;;;;;14.22;100.00;100538.13;5041161;28;20037;-88
2023/07/20 01:05:55;;;;;;;0.70;0.70;;;;;;;14.17;100.00;100534.75;5025909;28;20045;-88
2023/07/20 01:08:58;;;;;;;0.68;0.68;;;;;;;14.17;100.00;100544.41;5025405;28;20051;-89
2023/07/20 01:11:40;;;;;;;1.00;0.82;;;;;;;14.14;100.00;100549.75;5003189;28;20056;-88
2023/07/20 01:14:07;;;;;;;0.90;0.70;;;;;;;14.12;100.00;100549.81;5035666;28;20048;-89
2023/07/20 01:16:34;;;;;;;0.57;0.57;;;;;;;14.07;100.00;100549.06;5023740;28;20060;-88
2023/07/20 01:19:01;;;;;;;0.90;0.85;;;;;;;14.04;100.00;100549.09;5030688;28;20049;-87
2023/07/20 01:21:56;;;;;;;2.00;0.80;;;;;;;14.01;100.00;100554.47;5027553;28;20044;-87
2023/07/20 01:25:23;;;;;;;1.98;0.80;;;;;;;13.98;100.00;100557.19;5030708;28;20051;-89
2023/07/20 01:28:22;;;;;;;0.82;0.70;;;;;;;13.97;100.00;100551.03;5014453;28;20068;-87
2023/07/20 01:31:00;;;;;;;1.00;0.60;;;;;;;14.01;100.00;100546.56;5028400;28;20293;-89
2023/07/20 01:33:29;;;;;;;0.68;0.68;;;;;;;14.05;100.00;100550.84;5032221;28;20116;-90
2023/07/20 01:35:59;;;;;;;0.77;0.77;;;;;;;14.13;100.00;100546.28;5043683;28;20136;-92
2023/07/20 01:38:26;;;;;;;0.85;0.70;;;;;;;14.22;100.00;100545.16;5038335;28;20045;-89
2023/07/20 01:40:53;;;;;;;1.05;1.00;;;;;;;14.36;100.00;100553.56;5037988;28;20044;-89
2023/07/20 01:43:20;;;;;;;0.85;0.65;;;;;;;14.47;100.00;100548.03;5021710;28;20049;-90
2023/07/20 01:45:47;;;;;;;2.50;0.98;;;;;;;14.52;100.00;100553.16;5022240;28;20404;-89
2023/07/20 01:48:13;;;;;;;1.80;0.90;;;;;;;14.55;99.86;100558.34;5035987;28;20033;-90
2023/07/20 01:50:40;;;;;;;3.13;1.33;;;;;;;14.56;99.75;100553.03;5041438;28;20041;-87
2023/07/20 01:53:07;;;;;;;0.88;0.70;;;;;;;14.55;99.19;100551.31;5035710;28;20048;-88
2023/07/20 01:55:33;;;;;;;1.67;0.98;;;;;;;14.55;99.33;100555.72;5022623;28;20068;-87
2023/07/20 01:58:01;;;;;;;0.82;0.80;;;;;;;14.55;99.29;100553.09;5039395;28;20072;-89
2023/07/20 02:00:28;;;;;;;1.50;0.90;;;;;;;14.59;98.77;100553.84;5042506;28;20045;-86
2023/07/20 02:02:55;;;;;;;0.85;0.85;;;;;;;14.62;98.93;100548.50;5051022;28;20049;-90
2023/07/20 02:05:21;;;;;;;0.95;0.90;;;;;;;14.62;98.76;100540.59;5025625;28;20056;-90
2023/07/20 02:07:48;;;;;;;0.70;0.63;;;;;;;14.57;98.86;100543.34;5038108;28;20499;-90
2023/07/20 02:10:15;;;;;;;1.83;0.50;;;;;;;14.51;98.99;100541.75;5042399;28;20041;-89
2023/07/20 02:12:41;;;;;;;0.40;0.40;;;;;;;14.45;99.21;100536.66;5037999;28;20056;-88
2023/07/20 02:15:09;;;;;;;0.93;0.90;;;;;;;14.35;100.00;100538.69;5018597;28;20065;-89
2023/07/20 02:17:36;;;;;;;0.98;0.57;;;;;;;14.26;99.92;100533.63;5026720;28;20055;-90
2023/07/20 02:20:03;;;;;;;0.45;0.40;;;;;;;14.19;100.00;100527.66;5039664;28;20051;-89
2023/07/20 02:22:29;;;;;;;0.60;0.50;;;;;;;14.11;100.00;100541.94;5041793;28;20045;-87
2023/07/20 02:24:56;;;;;;;4.30;0.50;;;;;;;14.05;100.00;100542.94;5025276;28;20086;-89
2023/07/20 02:27:23;;;;;;;0.63;0.30;;;;;;;13.98;100.00;100544.88;5042847;28;20045;-87
2023/07/20 02:29:50;;;;;;;0.45;0.30;;;;;;;13.93;100.00;100548.53;5022254;28;20072;-88
2023/07/20 02:32:17;;;;;;;0.47;0.30;;;;;;;13.87;100.00;100545.16;5037716;28;20056;-87
2023/07/20 02:34:43;;;;;;;0.60;0.60;;;;;;;13.85;100.00;100549.56;5059016;28;20050;-89
2023/07/20 02:37:12;;;;;;;0.50;0.50;;;;;;;13.84;100.00;100547.84;5060880;28;20048;-88
2023/07/20 02:39:40;;;;;;;1.00;0.70;;;;;;;13.90;100.00;100552.09;5061602;28;20470;-90
2023/07/20 02:42:07;;;;;;;0.70;0.70;;;;;;;13.94;100.00;100552.91;5057651;28;20071;-89
2023/07/20 02:44:33;;;;;;;5.32;1.40;;;;;;;14.01;100.00;100547.41;5050041;28;20498;-90
2023/07/20 02:47:00;;;;;;;1.55;0.60;;;;;;;14.11;100.00;100547.22;5045059;28;20040;-89
2023/07/20 02:49:27;;;;;;;0.40;0.40;;;;;;;14.20;100.00;100541.72;5060918;28;20049;-87
2023/07/20 02:51:54;;;;;;;3.15;0.55;;;;;;;14.31;100.00;100549.31;5040550;28;20102;-90
2023/07/20 02:54:22;;;;;;;0.63;0.63;;;;;;;14.41;100.00;100549.97;5046189;28;20073;-90
2023/07/20 02:56:49;;;;;;;0.55;0.55;;;;;;;14.51;99.69;100554.94;5057571;28;20143;-89
2023/07/20 02:59:15;;;;;;;2.17;0.70;;;;;;;14.58;99.11;100546.88;5058005;28;20074;-89
2023/07/20 03:01:43;;;;;;;1.67;0.73;;;;;;;14.65;98.59;100554.59;5056239;28;20045;-87
2023/07/20 03:04:10;;;;;;;1.15;0.38;;;;;;;14.66;98.53;100547.53;5064456;28;20037;-89
2023/07/20 03:06:37;;;;;;;2.25;0.63;;;;;;;14.69;98.11;100552.72;5043485;28;20054;-89
2023/07/20 03:09:04;;;;;;;0.43;0.43;;;;;;;14.71;98.06;100548.28;5060660;28;20479;-90
2023/07/20 03:11:32;;;;;;;1.15;0.43;;;;;;;14.72;98.08;100550.03;5051401;28;20403;-90
2023/07/20 03:13:59;;;;;;;0.57;0.57;;;;;;;14.76;97.54;100550.78;5047746;28;20041;-91
2023/07/20 03:16:26;;;;;;;1.58;0.43;;;;;;;14.75;97.75;100557.81;5065490;28;20052;-90
2023/07/20 03:18:53;;;;;;;1.42;0.85;;;;;;;14.75;97.53;100560.47;5066670;28;20043;-89
2023/07/20 03:21:20;;;;;;;0.50;0.50;;;;;;;14.74;97.65;100561.34;5051203;28;20146;-88
2023/07/20 03:23:46;;;;;;;0.45;0.45;;;;;;;14.74;97.69;100550.81;5043711;28;20045;-88
2023/07/20 03:26:13;;;;;;;0.95;0.40;;;;;;;14.81;97.34;100554.16;5049243;28;20041;-90
2023/07/20 03:28:40;;;;;;;1.40;0.40;;;;;;;14.82;97.06;100554.13;5046190;28;20334;-91
2023/07/20 03:31:06;;;;;;;1.20;0.63;;;;;;;14.83;97.02;100563.72;5031548;28;20048;-88
2023/07/20 03:33:34;;;;;;;0.40;0.40;;;;;;;14.83;97.13;100561.09;5041620;28;20048;-91
2023/07/20 03:36:01;;;;;;;0.40;0.40;;;;;;;14.87;96.84;100565.41;5024920;28;20032;-90
2023/07/20 03:38:28;;;;;;;0.75;0.63;;;;;;;14.92;96.79;100559.97;5041061;28;20461;-87
2023/07/20 03:41:00;;;;;;;0.70;0.70;;;;;;;14.93;96.50;100559.09;5041851;28;20082;-88
2023/07/20 03:43:30;;;;;;;0.63;0.63;;;;;;;14.98;96.50;100554.53;5041152;28;20135;-90
2023/07/20 03:45:57;;;;;;;0.60;0.60;;;;;;;15.04;96.07;100556.13;5041649;28;20291;-90
2023/07/20 03:48:26;;;;;;;1.63;0.52;;;;;;;15.00;96.09;100551.84;5026173;28;20080;-91
2023/07/20 03:50:54;;;;;;;1.17;0.70;;;;;;;15.07;95.84;100555.19;5040754;28;20075;-90
2023/07/20 03:53:21;;;;;;;1.50;0.68;;;;;;;15.14;95.56;100557.59;5043417;28;20037;-89
2023/07/20 03:55:52;;;;;;;1.65;1.15;;;;;;;15.17;95.33;100554.84;5026486;28;20048;-90
2023/07/20 03:58:21;;;;;;;1.88;0.80;;;;;;;15.20;94.84;100557.41;5034133;28;20079;-91
2023/07/20 04:00:52;;;;;;;1.23;0.40;;;;;;;15.24;94.78;100557.31;5025933;28;20052;-89
2023/07/20 04:03:22;;;;;;;0.63;0.60;;;;;;;15.26;94.40;100555.50;5035664;28;20096;-89
2023/07/20 04:05:49;;;;;;;0.40;0.40;;;;;;;15.24;94.70;100562.59;5023668;28;20180;-90
2023/07/20 04:08:16;;;;;;;0.60;0.50;;;;;;;15.24;94.46;100566.09;5037477;28;20460;-88
2023/07/20 04:10:46;;;;;;;1.55;0.70;;;;;;;15.25;94.94;100575.72;5016799;28;20046;-90
2023/07/20 04:13:13;;;;;;;1.95;0.82;;;;;;;15.20;96.51;100578.50;5037609;28;20120;-89
2023/07/20 04:15:39;;;;;;;4.50;1.48;;;;;;;15.08;97.43;100576.22;5021545;28;20056;-88
2023/07/20 04:18:06;;;;;;;6.28;0.93;;;;;;;14.95;99.70;100583.59;5037167;28;20040;-88
2023/07/20 04:20:32;;;;;;;2.63;1.05;;;;;;;14.75;100.00;100580.69;5021841;28;20056;-88
2023/07/20 04:22:59;;;;;;;1.58;0.70;;;;;;;14.58;100.00;100579.34;5035985;28;20117;-87
2023/07/20 04:25:26;;;;;;;1.00;0.80;;;;;;;14.48;100.00;100580.47;5023335;28;20056;-91
2023/07/20 04:27:53;;;;;;;0.85;0.70;;;;;;;14.35;100.00;100583.44;5031520;28;20114;-88
2023/07/20 04:30:21;;;;;;;1.58;1.05;;;;;;;14.23;100.00;100594.28;5034261;28;20108;-88
2023/07/20 04:32:49;;;;;;;1.23;0.68;;;;;;;14.11;100.00;100586.69;5024213;28;20063;-90
2023/07/20 04:35:50;;;;;;;0.80;0.80;;;;;;;13.96;100.00;100586.19;5032189;28;20060;-90
2023/07/20 04:38:18;;;;;;;0.90;0.60;;;;;;;13.85;100.00;100596.06;5039761;28;20057;-91
2023/07/20 04:40:53;;;;;;;0.70;0.70;;;;;;;13.82;100.00;100598.75;5039242;28;20068;-89
2023/07/20 04:43:20;;;;;;;0.65;0.65;;;;;;;13.79;100.00;100599.69;5022683;28;20057;-90
2023/07/20 04:45:46;;;;;;;1.10;1.00;;;;;;;13.81;100.00;100602.31;5052044;28;20045;-90
2023/07/20 04:48:16;;;;;;;2.38;1.10;;;;;;;13.77;100.00;100601.53;5040568;28;20499;-88
2023/07/20 04:50:45;;;;;;;0.70;0.70;;;;;;;13.80;100.00;100601.44;5037468;28;20216;-89
2023/07/20 04:53:13;;;;;;;1.08;1.02;;;;;;;13.83;100.00;100603.13;5037413;28;20032;-89
2023/07/20 04:55:41;;;;;;;1.63;1.25;;;;;;;13.83;100.00;100606.66;5020576;28;20083;-88
2023/07/20 04:58:08;;;;;;;1.48;1.38;;;;;;;13.87;100.00;100603.03;5039782;28;20121;-88
2023/07/20 05:00:35;;;;;;;2.45;2.20;;;;;;;14.00;100.00;100597.47;5037314;28;20087;-88
2023/07/20 05:03:02;;;;;;;7.13;2.65;;;;;;;14.07;100.00;100597.28;5036423;28;20065;-88
2023/07/20 05:05:29;;;;;;;2.35;2.15;;;;;;;14.12;100.00;100602.44;5026095;28;20110;-87
2023/07/20 05:07:55;;;;;;;5.53;2.67;;;;;;;14.18;100.00;100599.69;5038631;28;20078;-88
2023/07/20 05:10:22;;;;;;;6.13;2.53;;;;;;;14.25;100.00;100594.22;5050141;28;20073;-87
2023/07/20 05:12:48;;;;;;;5.50;3.53;;;;;;;14.29;100.00;100603.78;5017692;28;20055;-88
2023/07/20 05:15:15;;;;;;;2.83;2.20;;;;;;;14.35;100.00;100603.63;5039170;28;20103;-88
2023/07/20 05:17:42;;;;;;;4.15;2.20;;;;;;;14.39;100.00;100606.16;5027706;28;20064;-87
2023/07/20 05:20:12;;;;;;;6.05;2.60;;;;;;;14.45;100.00;100607.75;5058971;28;20049;-87
2023/07/20 05:22:39;;;;;;;4.53;1.70;;;;;;;14.51;100.00;100609.34;5045377;28;20110;-87
2023/07/20 05:25:11;;;;;;;2.00;1.90;;;;;;;14.55;100.00;100608.41;5036490;28;20048;-87
2023/07/20 05:27:39;;;;;;;1.90;1.80;;;;;;;14.59;100.00;100611.78;5027824;28;20053;-88
2023/07/20 05:30:07;;;;;;;2.20;2.00;;;;;;;14.55;100.00;100613.66;5051659;28;20049;-89
2023/07/20 05:32:34;;;;;;;1.98;1.75;;;;;;;14.57;100.00;100611.84;5030625;28;20048;-89
2023/07/20 05:35:02;;;;;;;1.52;1.42;;;;;;;14.61;100.00;100613.50;5038700;28;20044;-89
2023/07/20 05:37:31;;;;;;;2.05;1.58;;;;;;;14.66;100.00;100619.53;5066841;28;20079;-87
2023/07/20 05:39:58;;;;;;;2.35;1.75;;;;;;;14.68;100.00;100623.00;5049246;28;20547;-86
2023/07/20 05:42:25;;;;;;;1.70;1.60;;;;;;;14.72;100.00;100624.66;5044340;28;20071;-87
2023/07/20 05:44:54;;;;;;;1.75;1.65;;;;;;;14.76;100.00;100625.44;5062578;28;20044;-87
2023/07/20 05:47:23;;;;;;;1.83;1.67;;;;;;;14.76;100.00;100621.91;5073561;28;20048;-87
2023/07/20 05:49:50;;;;;;;1.20;1.20;;;;;;;14.75;100.00;100628.13;5059365;28;20057;-87
2023/07/20 05:52:16;;;;;;;2.40;2.00;;;;;;;14.75;100.00;100634.25;5044926;28;20048;-88
2023/07/20 05:54:43;;;;;;;1.73;1.70;;;;;;;14.77;100.00;100626.28;5039646;28;20040;-87
2023/07/20 05:57:10;;;;;;;2.80;2.60;;;;;;;14.78;100.00;100628.03;5060995;28;20231;-89
2023/07/20 05:59:38;;;;;;;3.15;2.85;;;;;;;14.78;100.00;100625.38;5027977;28;20048;-89
2023/07/20 06:02:05;;;;;;;3.60;2.80;;;;;;;14.81;100.00;100623.53;5062063;28;20427;-87
2023/07/20 06:04:32;;;;;;;3.53;3.10;;;;;;;14.89;100.00;100629.47;5039296;28;20044;-89
2023/07/20 06:07:01;;;;;;;4.60;3.92;;;;;;;14.96;100.00;100629.31;5044814;28;20050;-87
2023/07/20 06:09:29;;;;;;;4.05;3.63;;;;;;;14.99;100.00;100629.22;5047786;28;20506;-88
2023/07/20 06:11:57;;;;;;;4.20;3.80;;;;;;;14.99;100.00;100631.84;5057270;28;20087;-87
2023/07/20 06:14:23;;;;;;;3.45;2.88;;;;;;;15.11;100.00;100626.25;5045421;28;20054;-88
2023/07/20 06:16:50;;;;;;;3.60;2.65;;;;;;;15.23;100.00;100625.03;5042955;28;20106;-87
2023/07/20 06:19:17;;;;;;;2.13;2.00;;;;;;;15.34;100.00;100629.97;5054557;28;20436;-87
2023/07/20 06:21:44;;;;;;;1.83;1.73;;;;;;;15.30;100.00;100618.66;5043578;28;20048;-88
2023/07/20 06:24:11;;;;;;;2.75;1.48;;;;;;;15.33;100.00;100626.50;5035587;28;20041;-88
2023/07/20 06:26:39;;;;;;;2.47;2.28;;;;;;;15.40;100.00;100632.44;5047225;28;20051;-88
2023/07/20 06:29:10;;;;;;;1.85;1.75;;;;;;;15.48;100.00;100634.84;5046839;28;20103;-88
2023/07/20 06:31:37;;;;;;;5.95;2.55;;;;;;;15.50;100.00;100631.25;5042290;28;20044;-88
2023/07/20 06:34:06;;;;;;;3.33;2.42;;;;;;;15.65;100.00;100632.56;5037661;28;20588;-89
2023/07/20 06:36:33;;;;;;;2.90;1.80;;;;;;;15.80;100.00;100640.91;5038847;28;20044;-90
2023/07/20 06:38:59;;;;;;;2.22;1.92;;;;;;;15.98;100.00;100639.53;5034768;28;20132;-87
2023/07/20 06:41:29;;;;;;;4.25;1.90;;;;;;;16.06;100.00;100648.09;5047462;28;20135;-86
2023/07/20 06:43:58;;;;;;;2.45;2.25;;;;;;;15.98;100.00;100647.44;5039178;28;20036;-89
2023/07/20 06:46:28;;;;;;;2.40;2.25;;;;;;;15.83;100.00;100654.94;5072086;28;20106;-88
2023/07/20 06:48:54;;;;;;;2.55;2.35;;;;;;;15.77;100.00;100654.22;5040888;28;20098;-87
2023/07/20 06:51:21;;;;;;;2.33;2.13;;;;;;;15.85;100.00;100666.31;5041614;28;20063;-87
2023/07/20 06:53:48;;;;;;;4.55;2.35;;;;;;;15.84;100.00;100658.44;5057511;28;20694;-88
2023/07/20 06:56:15;;;;;;;2.10;2.00;;;;;;;15.88;100.00;100657.44;5047501;28;20372;-87
2023/07/20 06:58:41;;;;;;;3.58;2.25;;;;;;;16.13;100.00;100657.50;5035937;28;20431;-86
2023/07/20 07:01:09;;;;;;;1.95;1.80;;;;;;;16.39;100.00;100658.44;5045642;28;20104;-86
2023/07/20 07:03:36;;;;;;;2.38;2.00;;;;;;;16.57;100.00;100666.66;5051917;28;20064;-86
2023/07/20 07:06:03;;;;;;;2.05;1.80;;;;;;;16.52;100.00;100665.03;5037115;28;20097;-87
2023/07/20 07:08:30;;;;;;;1.58;1.48;;;;;;;16.50;99.80;100669.53;5036187;28;20048;-87
2023/07/20 07:10:56;;;;;;;1.05;1.02;;;;;;;16.58;99.82;100666.59;5051992;28;20040;-88
2023/07/20 07:13:23;;;;;;;1.70;1.33;;;;;;;16.85;98.89;100672.72;5057285;28;20056;-88
2023/07/20 07:15:49;;;;;;;1.10;1.10;;;;;;;17.19;96.87;100671.59;5055885;28;20645;-88
2023/07/20 07:18:20;;;;;;;1.38;1.20;;;;;;;17.34;95.04;100666.66;5058142;28;20049;-86
2023/07/20 07:20:53;;;;;;;1.35;1.13;;;;;;;17.72;92.24;100666.97;5058459;28;20135;-86
2023/07/20 07:23:19;;;;;;;1.17;1.08;;;;;;;18.09;90.58;100656.75;5062570;28;20072;-87
2023/07/20 07:25:48;;;;;;;0.98;0.98;;;;;;;18.30;87.88;100662.97;5048234;28;20041;-88
2023/07/20 07:28:15;;;;;;;1.77;0.90;;;;;;;18.47;88.32;100659.59;5060965;28;20055;-88
2023/07/20 07:30:41;;;;;;;1.45;1.35;;;;;;;18.77;86.94;100657.47;5044000;28;20418;-89
2023/07/20 07:33:09;;;;;;;1.25;0.88;;;;;;;19.15;84.39;100664.66;5059914;28;20141;-87
2023/07/20 07:35:36;;;;;;;1.38;1.02;;;;;;;19.12;84.36;100665.66;5047225;28;20067;-88
2023/07/20 07:38:03;;;;;;;1.58;1.48;;;;;;;18.99;84.26;100667.16;5068274;28;20566;-88
2023/07/20 07:40:30;;;;;;;3.55;1.90;;;;;;;18.57;85.14;100671.56;5072224;28;20044;-87
2023/07/20 07:42:56;;;;;;;1.90;1.80;;;;;;;18.26;87.13;100683.41;5035859;28;20725;-88
2023/07/20 07:45:23;;;;;;;1.55;1.50;;;;;;;18.15;87.67;100683.84;5060531;28;20037;-88
2023/07/20 07:47:50;;;;;;;2.28;2.13;;;;;;;18.05;86.53;100693.09;5042219;28;20040;-88
2023/07/20 07:50:16;;;;;;;3.03;1.90;;;;;;;18.25;84.87;100692.31;5044082;28;20044;-88
2023/07/20 07:53:21;;;;;;;1.80;1.70;;;;;;;18.41;84.75;100689.00;5050333;28;20044;-89
2023/07/20 07:55:51;;;;;;;1.48;1.48;;;;;;;18.39;84.40;100689.06;5052091;28;20052;-88
2023/07/20 07:58:18;;;;;;;1.13;1.13;;;;;;;18.95;82.65;100686.78;5065315;28;20063;-90
2023/07/20 08:00:46;;;;;;;1.73;1.15;;;;;;;20.08;77.27;100687.84;5051382;28;20057;-89
2023/07/20 08:03:18;;;;;;;0.63;0.63;;;;;;;20.87;72.81;100683.13;5034616;28;20044;-89
2023/07/20 08:05:46;;;;;;;1.25;1.00;;;;;;;21.39;69.64;100690.16;5069246;28;20017;-89
2023/07/20 08:08:13;;;;;;;1.58;0.70;;;;;;;21.35;69.01;100684.13;5056931;28;20066;-90
2023/07/20 08:10:41;;;;;;;1.20;0.38;;;;;;;20.97;67.71;100689.69;5042347;28;20080;-89
2023/07/20 08:13:17;;;;;;;1.60;0.57;;;;;;;21.58;65.50;100690.06;5079190;28;20040;-89
2023/07/20 08:19:10;;;;;;;;;;;;;;;23.05;59.82;100687.88;5061745;22;20164;-79
2023/07/20 08:21:36;;;;;;;0.50;0.50;;;;;;;22.61;59.49;100691.41;5049896;28;19963;-79
2023/07/20 08:24:03;;;;;;;0.50;0.50;;;;;;;21.47;62.26;100698.59;5073140;28;20051;-80
2023/07/20 08:26:29;;;;;;;1.42;0.65;;;;;;;20.97;64.52;100697.69;5056195;28;20121;-82
2023/07/20 08:28:56;;;;;;;0.60;0.32;;;;;;;21.95;61.56;100702.22;5055721;28;20040;-80
2023/07/20 08:31:23;;;;;;;0.40;0.40;;;;;;;23.25;57.03;100689.34;5055021;28;20040;-80
2023/07/20 08:33:49;;;;;;;0.43;0.43;;;;;;;24.57;52.49;100691.66;5039344;28;20464;-83
2023/07/20 08:36:16;;;;;;;0.80;0.50;;;;;;;25.50;49.95;100690.69;5073624;28;20036;-80
2023/07/20 08:38:42;;;;;;;1.33;0.45;;;;;;;26.45;44.06;100687.38;5055868;28;20475;-79
2023/07/20 08:41:10;;;;;;;0.38;0.38;;;;;;;26.32;45.14;100687.44;5055549;28;20036;-79
2023/07/20 08:43:40;;;;;;;0.77;0.77;;;;;;;25.39;46.19;100694.13;5038370;28;20124;-79
2023/07/20 08:46:06;;;;;;;2.08;0.40;;;;;;;23.95;47.62;100701.91;5055518;28;20052;-81
2023/07/20 08:48:34;;;;;;;0.40;0.40;;;;;;;23.79;48.16;100704.69;5055180;28;20043;-80
2023/07/20 08:51:02;;;;;;;0.30;0.20;;;;;;;25.01;42.41;100700.34;5058123;28;20139;-80
2023/07/20 08:53:30;;;;;;;3.13;0.73;;;;;;;26.37;40.53;100696.00;5031096;28;20499;-79
2023/07/20 08:55:56;;;;;;;0.10;0.10;;;;;;;27.29;38.16;100696.16;5038857;28;20037;-81
2023/07/20 08:58:26;;;;;;;0.95;0.30;;;;;;;25.99;39.59;100702.38;5039089;28;20041;-80
2023/07/20 09:00:54;;;;;;;0.73;0.30;;;;;;;24.57;42.46;100705.03;5038866;28;20037;-80
2023/07/20 09:03:20;;;;;;;1.25;0.55;;;;;;;23.23;45.67;100698.41;5039005;28;20494;-80
2023/07/20 09:05:47;;;;;;;1.50;0.50;;;;;;;23.76;45.15;100698.69;5034173;28;20041;-80
2023/07/20 09:08:13;;;;;;;0.38;0.30;;;;;;;25.76;40.94;100699.53;5040222;28;20092;-84
2023/07/20 09:10:40;;;;;;;1.05;0.20;;;;;;;26.22;38.79;100690.84;5039095;28;20079;-80
2023/07/20 09:13:07;;;;;;;0.57;0.30;;;;;;;25.33;40.64;100694.53;5055654;28;20029;-80
2023/07/20 09:15:33;;;;;;;2.00;0.45;;;;;;;24.32;42.67;100695.13;5038701;28;20452;-80
2023/07/20 09:18:03;;;;;;;0.10;0.10;;;;;;;23.76;44.47;100687.97;5055185;28;20045;-80
2023/07/20 09:20:34;;;;;;;2.15;0.25;;;;;;;24.64;42.68;100693.00;5038016;28;20041;-80
2023/07/20 09:23:00;;;;;;;0.25;0.25;;;;;;;25.93;39.40;100691.13;5056394;28;20047;-80
2023/07/20 09:25:28;;;;;;;0.55;0.43;;;;;;;27.55;37.33;100694.13;5049713;28;20088;-80
2023/07/20 09:27:55;;;;;;;1.40;0.30;;;;;;;29.15;34.17;100689.00;5019079;28;20101;-80
2023/07/20 09:30:26;;;;;;;0.93;0.20;;;;;;;29.58;32.86;100685.28;5002873;28;20052;-82
2023/07/20 09:32:53;;;;;;;0.22;0.20;;;;;;;29.62;32.43;100689.41;5018750;28;20037;-80
2023/07/20 09:35:22;;;;;;;0.10;0.10;;;;;;;29.74;32.58;100695.53;5035164;28;20112;-80
2023/07/20 09:38:00;;;;;;;1.92;0.38;;;;;;;27.53;33.60;100693.41;5040912;28;20041;-80
2023/07/20 09:40:30;;;;;;;6.60;0.52;;;;;;;27.77;34.96;100689.69;5021963;28;20045;-80
2023/07/20 09:43:00;;;;;;;4.00;0.60;;;;;;;28.71;32.37;100689.19;5055309;28;20051;-80
2023/07/20 09:45:43;;;;;;;2.28;0.20;;;;;;;29.15;32.14;100692.59;5055105;28;20455;-81
2023/07/20 09:48:11;;;;;;;0.90;0.20;;;;;;;27.92;34.03;100684.88;5021834;28;20223;-81
2023/07/20 09:50:43;;;;;;;0.25;0.25;;;;;;;26.16;35.31;100688.59;5038441;28;20064;-81
2023/07/20 09:53:14;;;;;;;2.80;1.10;;;;;;;25.89;34.47;100686.09;5038522;28;20135;-81
2023/07/20 09:55:42;;;;;;;2.70;0.90;;;;;;;27.67;32.10;100681.50;5039002;28;20207;-81
2023/07/20 09:58:12;;;;;;;2.92;0.70;;;;;;;29.18;30.66;100683.38;5021472;28;20383;-84
2023/07/20 10:00:41;;;;;;;2.20;0.77;;;;;;;30.20;28.59;100687.84;5036910;28;20033;-81
2023/07/20 10:03:08;;;;;;;11.07;2.95;;;;;;;28.54;30.24;100690.59;5037205;28;20471;-82
2023/07/20 10:05:36;;;;;;;4.47;2.10;;;;;;;27.80;32.08;100694.81;5021248;28;20047;-80
2023/07/20 10:08:05;;;;;;;3.22;1.60;;;;;;;29.28;30.95;100678.91;5037611;28;20048;-80
2023/07/20 10:10:34;;;;;;;9.15;2.22;;;;;;;31.02;28.66;100685.66;5037401;28;20091;-81
2023/07/20 10:13:03;;;;;;;11.38;1.98;;;;;;;31.67;27.32;100685.72;5056855;28;20041;-81
2023/07/20 10:15:50;;;;;;;6.88;2.63;;;;;;;32.12;26.06;100688.56;5036428;28;20045;-80
2023/07/20 10:18:38;;;;;;;1.10;1.00;;;;;;;31.69;26.75;100692.84;5018023;28;20064;-80
2023/07/20 10:21:07;;;;;;;0.95;0.40;;;;;;;31.50;26.81;100695.47;5034209;28;20065;-82
2023/07/20 10:23:34;;;;;;;0.47;0.30;;;;;;;31.06;26.80;100695.19;5017202;28;20041;-81
2023/07/20 10:26:02;;;;;;;0.40;0.30;;;;;;;30.22;27.71;100696.66;5017706;28;20040;-81
2023/07/20 10:28:29;;;;;;;2.28;0.70;;;;;;;31.21;26.91;100684.78;5046995;28;20054;-81
2023/07/20 10:30:56;;;;;;;2.17;0.50;;;;;;;30.09;27.82;100686.13;5040881;28;20048;-80
2023/07/20 10:33:22;;;;;;;2.83;0.50;;;;;;;27.70;30.79;100685.78;5056898;28;20463;-81
2023/07/20 10:35:58;;;;;;;0.93;0.73;;;;;;;26.65;32.59;100686.75;5056836;28;20047;-80
2023/07/20 10:38:53;;;;;;;0.25;0.20;;;;;;;25.63;34.10;100698.72;5040515;28;20045;-80
2023/07/20 10:41:24;;;;;;;0.20;0.20;;;;;;;25.99;34.22;100688.97;5056951;28;20036;-79
2023/07/20 10:43:52;;;;;;;0.47;0.10;;;;;;;28.63;30.43;100681.72;5057364;28;20068;-80
2023/07/20 10:46:40;;;;;;;0.43;0.30;;;;;;;30.48;28.15;100669.09;5057146;28;20036;-80
2023/07/20 10:49:09;;;;;;;1.05;0.30;;;;;;;29.54;28.44;100676.59;5040084;28;20051;-82
2023/07/20 10:51:47;;;;;;;0.30;0.30;;;;;;;27.92;30.47;100684.88;5023155;28;20033;-86
2023/07/20 10:54:17;;;;;;;1.08;0.30;;;;;;;26.36;33.01;100686.25;5017162;28;20049;-80
2023/07/20 10:56:53;;;;;;;0.20;0.13;;;;;;;25.68;34.43;100689.38;5034652;28;20431;-80
2023/07/20 10:59:21;;;;;;;0.40;0.40;;;;;;;25.22;35.48;100687.25;5017336;28;20034;-80
2023/07/20 11:01:49;;;;;;;0.93;0.20;;;;;;;25.05;35.87;100685.75;5017303;28;20037;-80
2023/07/20 11:04:16;;;;;;;1.13;0.30;;;;;;;26.64;34.15;100687.69;5033392;28;20484;-79
2023/07/20 11:06:47;;;;;;;1.23;0.30;;;;;;;28.57;31.01;100679.56;5017019;28;20051;-84
2023/07/20 11:09:15;;;;;;;0.55;0.20;;;;;;;30.77;27.62;100674.47;5000459;28;20455;-80
2023/07/20 11:11:47;;;;;;;0.68;0.32;;;;;;;31.81;27.12;100668.13;5053910;28;20036;-81
2023/07/20 11:14:28;;;;;;;0.85;0.10;;;;;;;31.78;26.17;100675.69;5038707;28;20124;-80
2023/07/20 11:16:55;;;;;;;0.30;0.30;;;;;;;29.82;29.07;100690.28;5049242;28;20044;-80
2023/07/20 11:19:24;;;;;;;0.85;0.40;;;;;;;30.50;28.04;100678.75;5059203;28;20052;-82
2023/07/20 11:21:55;;;;;;;1.08;0.40;;;;;;;31.96;26.32;100673.00;5049525;28;20064;-80
2023/07/20 11:24:22;;;;;;;0.55;0.17;;;;;;;30.96;27.28;100684.41;5043536;28;20132;-80
2023/07/20 11:26:53;;;;;;;0.35;0.35;;;;;;;30.96;27.73;100684.41;5056381;28;20064;-80
2023/07/20 11:29:24;;;;;;;1.03;0.20;;;;;;;30.90;27.73;100684.09;5039312;28;20036;-79
2023/07/20 11:31:51;;;;;;;1.02;0.55;;;;;;;30.91;28.05;100688.50;5039734;28;20036;-82
2023/07/20 11:34:20;;;;;;;2.30;0.52;;;;;;;30.19;28.60;100689.69;5056264;28;20146;-81